Terminal Aerodrome Forecast
Issued by NWS Bismarck, ND

Home | Current Version | Previous Version | Graphics & Text | Print | Product List | Glossary On
Versions: 1 2 3 4 5 6 7 8 9 10 11 12 13 14 15 16 17 18
000
FTUS43 KBIS 042325
TAFBIS
TAF
KBIS 042325Z 0500/0524 18010KT P6SM SCT050
     FM050200 18009KT P6SM VCTS SCT050CB BKN120
     FM050600 31008KT P6SM BKN120
     FM051400 34015KT P6SM -SHRA VCTS SCT025 OVC070CB=

USA.gov is the U.S. government's official web portal to all federal, state and local government web resources and services.